sensor_id;sensor_type;location;lat;lon;timestamp;P1;durP1;ratioP1;P2;durP2;ratioP2
828;SDS011;396;52.558;13.188;2022-08-03T00:01:20;4.63;;;2.73;;
828;SDS011;396;52.558;13.188;2022-08-03T00:03:47;8.50;;;2.50;;
828;SDS011;396;52.558;13.188;2022-08-03T00:06:13;5.67;;;2.73;;
828;SDS011;396;52.558;13.188;2022-08-03T00:08:40;6.53;;;2.50;;
828;SDS011;396;52.558;13.188;2022-08-03T00:11:07;4.00;;;2.87;;
828;SDS011;396;52.558;13.188;2022-08-03T00:13:33;5.93;;;2.20;;
828;SDS011;396;52.558;13.188;2022-08-03T00:16:00;5.70;;;3.17;;
828;SDS011;396;52.558;13.188;2022-08-03T00:18:28;5.03;;;2.60;;
828;SDS011;396;52.558;13.188;2022-08-03T00:20:54;8.00;;;3.10;;
828;SDS011;396;52.558;13.188;2022-08-03T00:23:21;7.70;;;3.47;;
828;SDS011;396;52.558;13.188;2022-08-03T00:25:48;4.10;;;2.67;;
828;SDS011;396;52.558;13.188;2022-08-03T00:28:14;4.50;;;2.30;;
828;SDS011;396;52.558;13.188;2022-08-03T00:30:41;6.57;;;3.10;;
828;SDS011;396;52.558;13.188;2022-08-03T00:33:07;5.33;;;2.60;;
828;SDS011;396;52.558;13.188;2022-08-03T00:35:36;4.40;;;2.43;;
828;SDS011;396;52.558;13.188;2022-08-03T00:38:02;5.20;;;3.10;;
828;SDS011;396;52.558;13.188;2022-08-03T00:40:29;4.47;;;2.67;;
828;SDS011;396;52.558;13.188;2022-08-03T00:42:57;3.93;;;2.63;;
828;SDS011;396;52.558;13.188;2022-08-03T00:45:25;4.60;;;2.60;;
828;SDS011;396;52.558;13.188;2022-08-03T00:47:53;4.23;;;2.17;;
828;SDS011;396;52.558;13.188;2022-08-03T00:50:20;5.77;;;2.47;;
828;SDS011;396;52.558;13.188;2022-08-03T00:52:50;4.40;;;2.43;;
828;SDS011;396;52.558;13.188;2022-08-03T00:55:19;5.03;;;2.37;;
828;SDS011;396;52.558;13.188;2022-08-03T00:57:46;6.30;;;2.70;;
828;SDS011;396;52.558;13.188;2022-08-03T01:00:14;5.00;;;2.60;;
828;SDS011;396;52.558;13.188;2022-08-03T01:02:42;4.07;;;2.20;;
828;SDS011;396;52.558;13.188;2022-08-03T01:05:09;5.20;;;2.50;;
828;SDS011;396;52.558;13.188;2022-08-03T01:07:45;4.30;;;2.80;;
828;SDS011;396;52.558;13.188;2022-08-03T01:10:26;10.20;;;2.80;;
828;SDS011;396;52.558;13.188;2022-08-03T01:12:58;5.30;;;1.73;;
828;SDS011;396;52.558;13.188;2022-08-03T01:15:30;4.47;;;2.30;;
828;SDS011;396;52.558;13.188;2022-08-03T01:18:05;11.40;;;3.30;;
828;SDS011;396;52.558;13.188;2022-08-03T01:20:37;4.73;;;2.70;;
828;SDS011;396;52.558;13.188;2022-08-03T01:23:19;4.60;;;2.17;;
828;SDS011;396;52.558;13.188;2022-08-03T01:26:07;8.10;;;2.70;;
828;SDS011;396;52.558;13.188;2022-08-03T01:28:44;4.37;;;2.57;;
828;SDS011;396;52.558;13.188;2022-08-03T01:31:25;6.10;;;2.83;;
828;SDS011;396;52.558;13.188;2022-08-03T01:33:55;4.30;;;2.27;;
828;SDS011;396;52.558;13.188;2022-08-03T01:36:25;4.67;;;2.87;;
828;SDS011;396;52.558;13.188;2022-08-03T01:38:59;4.10;;;2.43;;
828;SDS011;396;52.558;13.188;2022-08-03T01:41:28;4.70;;;2.40;;
828;SDS011;396;52.558;13.188;2022-08-03T01:43:58;5.10;;;2.60;;
828;SDS011;396;52.558;13.188;2022-08-03T01:46:28;4.67;;;3.00;;
828;SDS011;396;52.558;13.188;2022-08-03T01:48:56;5.90;;;2.90;;
828;SDS011;396;52.558;13.188;2022-08-03T01:51:25;5.93;;;2.63;;
828;SDS011;396;52.558;13.188;2022-08-03T01:53:53;8.30;;;2.60;;
828;SDS011;396;52.558;13.188;2022-08-03T01:56:21;5.60;;;3.17;;
828;SDS011;396;52.558;13.188;2022-08-03T01:58:50;5.70;;;3.17;;
828;SDS011;396;52.558;13.188;2022-08-03T02:01:19;5.00;;;2.90;;
828;SDS011;396;52.558;13.188;2022-08-03T02:03:49;5.43;;;2.80;;
828;SDS011;396;52.558;13.188;2022-08-03T02:06:17;5.50;;;2.70;;
828;SDS011;396;52.558;13.188;2022-08-03T02:08:46;12.43;;;3.37;;
828;SDS011;396;52.558;13.188;2022-08-03T02:11:14;4.20;;;2.47;;
828;SDS011;396;52.558;13.188;2022-08-03T02:13:41;4.50;;;2.27;;
828;SDS011;396;52.558;13.188;2022-08-03T02:16:09;4.10;;;2.03;;
828;SDS011;396;52.558;13.188;2022-08-03T02:18:38;4.23;;;2.80;;
828;SDS011;396;52.558;13.188;2022-08-03T02:21:08;5.03;;;3.00;;
828;SDS011;396;52.558;13.188;2022-08-03T02:23:37;7.97;;;3.60;;
828;SDS011;396;52.558;13.188;2022-08-03T02:26:04;6.23;;;2.17;;
828;SDS011;396;52.558;13.188;2022-08-03T02:28:37;6.40;;;3.33;;
828;SDS011;396;52.558;13.188;2022-08-03T02:31:10;5.00;;;2.10;;
828;SDS011;396;52.558;13.188;2022-08-03T02:33:41;5.80;;;3.47;;
828;SDS011;396;52.558;13.188;2022-08-03T02:36:13;5.37;;;3.00;;
828;SDS011;396;52.558;13.188;2022-08-03T02:38:43;3.47;;;2.13;;
828;SDS011;396;52.558;13.188;2022-08-03T02:41:16;4.30;;;2.53;;
828;SDS011;396;52.558;13.188;2022-08-03T02:43:47;4.73;;;2.80;;
828;SDS011;396;52.558;13.188;2022-08-03T02:46:19;7.63;;;2.80;;
828;SDS011;396;52.558;13.188;2022-08-03T02:48:49;5.00;;;3.17;;
828;SDS011;396;52.558;13.188;2022-08-03T02:51:20;4.70;;;2.70;;
828;SDS011;396;52.558;13.188;2022-08-03T02:53:48;5.50;;;2.63;;
828;SDS011;396;52.558;13.188;2022-08-03T02:56:15;6.93;;;3.20;;
828;SDS011;396;52.558;13.188;2022-08-03T02:58:44;5.40;;;3.40;;
828;SDS011;396;52.558;13.188;2022-08-03T03:01:13;4.60;;;3.50;;
828;SDS011;396;52.558;13.188;2022-08-03T03:03:42;7.27;;;4.10;;
828;SDS011;396;52.558;13.188;2022-08-03T03:06:09;5.03;;;2.80;;
828;SDS011;396;52.558;13.188;2022-08-03T03:08:38;6.00;;;3.20;;
828;SDS011;396;52.558;13.188;2022-08-03T03:11:05;6.03;;;3.33;;
828;SDS011;396;52.558;13.188;2022-08-03T03:13:33;5.57;;;2.77;;
828;SDS011;396;52.558;13.188;2022-08-03T03:16:02;5.63;;;2.73;;
828;SDS011;396;52.558;13.188;2022-08-03T03:18:31;4.30;;;2.13;;
828;SDS011;396;52.558;13.188;2022-08-03T03:20:59;4.73;;;2.50;;
828;SDS011;396;52.558;13.188;2022-08-03T03:23:27;5.57;;;3.03;;
828;SDS011;396;52.558;13.188;2022-08-03T03:25:57;4.27;;;2.83;;
828;SDS011;396;52.558;13.188;2022-08-03T03:28:26;4.97;;;2.77;;
828;SDS011;396;52.558;13.188;2022-08-03T03:30:53;4.07;;;2.30;;
828;SDS011;396;52.558;13.188;2022-08-03T03:33:20;3.93;;;2.47;;
828;SDS011;396;52.558;13.188;2022-08-03T03:35:47;6.70;;;2.33;;
828;SDS011;396;52.558;13.188;2022-08-03T03:38:15;4.00;;;2.10;;
828;SDS011;396;52.558;13.188;2022-08-03T03:40:42;4.73;;;2.77;;
828;SDS011;396;52.558;13.188;2022-08-03T03:43:10;4.90;;;3.03;;
828;SDS011;396;52.558;13.188;2022-08-03T03:45:39;12.33;;;3.20;;
828;SDS011;396;52.558;13.188;2022-08-03T03:48:06;4.53;;;2.73;;
828;SDS011;396;52.558;13.188;2022-08-03T03:50:34;5.30;;;2.70;;
828;SDS011;396;52.558;13.188;2022-08-03T03:53:07;4.13;;;2.73;;
828;SDS011;396;52.558;13.188;2022-08-03T03:55:34;13.40;;;3.53;;
828;SDS011;396;52.558;13.188;2022-08-03T03:58:01;4.70;;;2.73;;
828;SDS011;396;52.558;13.188;2022-08-03T04:00:30;4.17;;;2.50;;
828;SDS011;396;52.558;13.188;2022-08-03T04:02:57;3.70;;;2.20;;
828;SDS011;396;52.558;13.188;2022-08-03T04:05:23;5.37;;;2.60;;
828;SDS011;396;52.558;13.188;2022-08-03T04:08:08;4.53;;;2.50;;
828;SDS011;396;52.558;13.188;2022-08-03T04:10:55;6.77;;;2.90;;
828;SDS011;396;52.558;13.188;2022-08-03T04:13:36;5.03;;;2.50;;
828;SDS011;396;52.558;13.188;2022-08-03T04:16:07;8.97;;;3.27;;
828;SDS011;396;52.558;13.188;2022-08-03T04:18:37;5.97;;;2.93;;
828;SDS011;396;52.558;13.188;2022-08-03T04:21:07;4.50;;;2.73;;
828;SDS011;396;52.558;13.188;2022-08-03T04:23:36;9.13;;;3.57;;
828;SDS011;396;52.558;13.188;2022-08-03T04:26:06;5.27;;;3.10;;
828;SDS011;396;52.558;13.188;2022-08-03T04:28:36;4.37;;;2.70;;
828;SDS011;396;52.558;13.188;2022-08-03T04:31:04;7.40;;;3.07;;
828;SDS011;396;52.558;13.188;2022-08-03T04:33:33;5.60;;;2.80;;
828;SDS011;396;52.558;13.188;2022-08-03T04:36:03;14.13;;;3.47;;
828;SDS011;396;52.558;13.188;2022-08-03T04:38:34;6.90;;;3.13;;
828;SDS011;396;52.558;13.188;2022-08-03T04:41:04;6.03;;;3.30;;
828;SDS011;396;52.558;13.188;2022-08-03T04:43:32;6.10;;;3.30;;
828;SDS011;396;52.558;13.188;2022-08-03T04:46:00;5.27;;;3.13;;
828;SDS011;396;52.558;13.188;2022-08-03T04:48:29;4.60;;;2.73;;
828;SDS011;396;52.558;13.188;2022-08-03T04:50:56;6.60;;;3.00;;
828;SDS011;396;52.558;13.188;2022-08-03T04:53:24;5.33;;;3.50;;
828;SDS011;396;52.558;13.188;2022-08-03T04:55:51;3.90;;;2.57;;
828;SDS011;396;52.558;13.188;2022-08-03T04:58:18;5.47;;;3.47;;
828;SDS011;396;52.558;13.188;2022-08-03T05:00:44;8.27;;;4.33;;
828;SDS011;396;52.558;13.188;2022-08-03T05:03:15;7.97;;;3.30;;
828;SDS011;396;52.558;13.188;2022-08-03T05:05:43;7.17;;;3.40;;
828;SDS011;396;52.558;13.188;2022-08-03T05:08:09;4.27;;;2.60;;
828;SDS011;396;52.558;13.188;2022-08-03T05:10:36;8.57;;;3.40;;
828;SDS011;396;52.558;13.188;2022-08-03T05:13:03;12.00;;;3.77;;
828;SDS011;396;52.558;13.188;2022-08-03T05:15:30;7.20;;;3.40;;
828;SDS011;396;52.558;13.188;2022-08-03T05:17:57;5.40;;;2.73;;
828;SDS011;396;52.558;13.188;2022-08-03T05:20:23;6.53;;;3.07;;
828;SDS011;396;52.558;13.188;2022-08-03T05:22:51;4.77;;;2.90;;
828;SDS011;396;52.558;13.188;2022-08-03T05:25:18;6.07;;;3.03;;
828;SDS011;396;52.558;13.188;2022-08-03T05:27:44;4.37;;;2.70;;
828;SDS011;396;52.558;13.188;2022-08-03T05:30:11;3.90;;;2.30;;
828;SDS011;396;52.558;13.188;2022-08-03T05:32:38;3.70;;;2.27;;
828;SDS011;396;52.558;13.188;2022-08-03T05:35:05;3.80;;;2.40;;
828;SDS011;396;52.558;13.188;2022-08-03T05:37:32;5.73;;;2.00;;
828;SDS011;396;52.558;13.188;2022-08-03T05:40:00;4.07;;;1.77;;
828;SDS011;396;52.558;13.188;2022-08-03T05:42:27;3.07;;;1.50;;
828;SDS011;396;52.558;13.188;2022-08-03T05:44:53;4.00;;;1.87;;
828;SDS011;396;52.558;13.188;2022-08-03T05:47:20;5.17;;;1.87;;
828;SDS011;396;52.558;13.188;2022-08-03T05:49:47;4.27;;;1.87;;
828;SDS011;396;52.558;13.188;2022-08-03T05:52:13;6.80;;;2.10;;
828;SDS011;396;52.558;13.188;2022-08-03T05:54:40;4.93;;;1.97;;
828;SDS011;396;52.558;13.188;2022-08-03T05:57:08;3.83;;;1.47;;
828;SDS011;396;52.558;13.188;2022-08-03T05:59:36;3.10;;;1.60;;
828;SDS011;396;52.558;13.188;2022-08-03T06:02:03;3.13;;;1.47;;
828;SDS011;396;52.558;13.188;2022-08-03T06:04:30;2.90;;;1.33;;
828;SDS011;396;52.558;13.188;2022-08-03T06:06:56;4.20;;;1.50;;
828;SDS011;396;52.558;13.188;2022-08-03T06:09:23;3.40;;;1.60;;
828;SDS011;396;52.558;13.188;2022-08-03T06:11:49;2.33;;;1.07;;
828;SDS011;396;52.558;13.188;2022-08-03T06:14:17;3.07;;;1.37;;
828;SDS011;396;52.558;13.188;2022-08-03T06:16:44;3.87;;;1.87;;
828;SDS011;396;52.558;13.188;2022-08-03T06:19:11;4.27;;;1.73;;
828;SDS011;396;52.558;13.188;2022-08-03T06:21:37;3.03;;;1.30;;
828;SDS011;396;52.558;13.188;2022-08-03T06:24:04;5.10;;;2.20;;
828;SDS011;396;52.558;13.188;2022-08-03T06:26:31;3.03;;;1.50;;
828;SDS011;396;52.558;13.188;2022-08-03T06:28:57;4.10;;;1.43;;
828;SDS011;396;52.558;13.188;2022-08-03T06:31:25;2.47;;;1.47;;
828;SDS011;396;52.558;13.188;2022-08-03T06:33:53;3.33;;;1.70;;
828;SDS011;396;52.558;13.188;2022-08-03T06:36:20;2.63;;;1.40;;
828;SDS011;396;52.558;13.188;2022-08-03T06:38:47;3.00;;;1.37;;
828;SDS011;396;52.558;13.188;2022-08-03T06:41:13;2.20;;;1.00;;
828;SDS011;396;52.558;13.188;2022-08-03T06:43:40;4.60;;;1.73;;
828;SDS011;396;52.558;13.188;2022-08-03T06:46:07;3.07;;;1.50;;
828;SDS011;396;52.558;13.188;2022-08-03T06:48:36;4.10;;;1.87;;
828;SDS011;396;52.558;13.188;2022-08-03T06:51:03;7.20;;;1.77;;
828;SDS011;396;52.558;13.188;2022-08-03T06:53:29;2.50;;;1.30;;
828;SDS011;396;52.558;13.188;2022-08-03T06:55:56;2.60;;;1.13;;
828;SDS011;396;52.558;13.188;2022-08-03T06:58:23;2.80;;;1.20;;
828;SDS011;396;52.558;13.188;2022-08-03T07:00:49;5.87;;;1.50;;
828;SDS011;396;52.558;13.188;2022-08-03T07:03:16;2.50;;;1.20;;
828;SDS011;396;52.558;13.188;2022-08-03T07:05:44;3.80;;;1.20;;
828;SDS011;396;52.558;13.188;2022-08-03T07:08:11;2.80;;;1.37;;
828;SDS011;396;52.558;13.188;2022-08-03T07:10:38;2.80;;;1.30;;
828;SDS011;396;52.558;13.188;2022-08-03T07:13:05;2.50;;;1.03;;
828;SDS011;396;52.558;13.188;2022-08-03T07:15:32;4.70;;;1.70;;
828;SDS011;396;52.558;13.188;2022-08-03T07:17:59;4.70;;;1.50;;
828;SDS011;396;52.558;13.188;2022-08-03T07:20:26;3.43;;;1.53;;
828;SDS011;396;52.558;13.188;2022-08-03T07:22:54;2.37;;;1.10;;
828;SDS011;396;52.558;13.188;2022-08-03T07:25:21;3.10;;;1.30;;
828;SDS011;396;52.558;13.188;2022-08-03T07:27:47;2.60;;;1.10;;
828;SDS011;396;52.558;13.188;2022-08-03T07:30:14;2.30;;;0.90;;
828;SDS011;396;52.558;13.188;2022-08-03T07:32:42;2.70;;;1.50;;
828;SDS011;396;52.558;13.188;2022-08-03T07:35:09;2.50;;;1.10;;
828;SDS011;396;52.558;13.188;2022-08-03T07:37:36;2.87;;;1.40;;
828;SDS011;396;52.558;13.188;2022-08-03T07:40:05;2.50;;;0.90;;
828;SDS011;396;52.558;13.188;2022-08-03T07:42:32;2.90;;;1.20;;
828;SDS011;396;52.558;13.188;2022-08-03T07:44:59;2.87;;;1.20;;
828;SDS011;396;52.558;13.188;2022-08-03T07:47:26;3.10;;;1.43;;
828;SDS011;396;52.558;13.188;2022-08-03T07:49:54;2.50;;;1.10;;
828;SDS011;396;52.558;13.188;2022-08-03T07:52:21;2.80;;;1.37;;
828;SDS011;396;52.558;13.188;2022-08-03T07:55:07;2.60;;;1.30;;
828;SDS011;396;52.558;13.188;2022-08-03T07:57:35;2.40;;;1.20;;
828;SDS011;396;52.558;13.188;2022-08-03T08:00:02;2.80;;;1.30;;
828;SDS011;396;52.558;13.188;2022-08-03T08:02:30;2.87;;;1.23;;
828;SDS011;396;52.558;13.188;2022-08-03T08:04:56;3.70;;;1.00;;
828;SDS011;396;52.558;13.188;2022-08-03T08:07:23;2.40;;;1.00;;
828;SDS011;396;52.558;13.188;2022-08-03T08:09:50;7.63;;;1.37;;
828;SDS011;396;52.558;13.188;2022-08-03T08:12:18;2.87;;;1.30;;
828;SDS011;396;52.558;13.188;2022-08-03T08:14:45;2.10;;;0.80;;
828;SDS011;396;52.558;13.188;2022-08-03T08:17:11;2.80;;;1.30;;
828;SDS011;396;52.558;13.188;2022-08-03T08:19:38;3.00;;;1.40;;
828;SDS011;396;52.558;13.188;2022-08-03T08:22:05;2.70;;;1.37;;
828;SDS011;396;52.558;13.188;2022-08-03T08:24:32;4.00;;;1.67;;
828;SDS011;396;52.558;13.188;2022-08-03T08:26:58;2.27;;;0.87;;
828;SDS011;396;52.558;13.188;2022-08-03T08:29:27;2.30;;;1.03;;
828;SDS011;396;52.558;13.188;2022-08-03T08:31:55;2.60;;;1.20;;
828;SDS011;396;52.558;13.188;2022-08-03T08:34:21;3.20;;;1.47;;
828;SDS011;396;52.558;13.188;2022-08-03T08:36:48;6.17;;;1.27;;
828;SDS011;396;52.558;13.188;2022-08-03T08:39:15;4.00;;;1.30;;
828;SDS011;396;52.558;13.188;2022-08-03T08:41:42;2.60;;;1.43;;
828;SDS011;396;52.558;13.188;2022-08-03T08:44:08;2.87;;;1.30;;
828;SDS011;396;52.558;13.188;2022-08-03T08:46:36;2.03;;;0.90;;
828;SDS011;396;52.558;13.188;2022-08-03T08:49:03;7.03;;;1.30;;
828;SDS011;396;52.558;13.188;2022-08-03T08:51:34;2.67;;;1.07;;
828;SDS011;396;52.558;13.188;2022-08-03T08:54:02;2.57;;;1.23;;
828;SDS011;396;52.558;13.188;2022-08-03T08:56:31;5.50;;;1.63;;
828;SDS011;396;52.558;13.188;2022-08-03T08:58:59;2.30;;;1.00;;
828;SDS011;396;52.558;13.188;2022-08-03T09:01:27;2.30;;;1.10;;
828;SDS011;396;52.558;13.188;2022-08-03T09:03:55;3.70;;;1.40;;
828;SDS011;396;52.558;13.188;2022-08-03T09:06:22;2.67;;;1.23;;
828;SDS011;396;52.558;13.188;2022-08-03T09:08:49;2.33;;;0.97;;
828;SDS011;396;52.558;13.188;2022-08-03T09:11:19;2.73;;;1.40;;
828;SDS011;396;52.558;13.188;2022-08-03T09:13:46;2.40;;;1.10;;
828;SDS011;396;52.558;13.188;2022-08-03T09:16:14;2.60;;;1.10;;
828;SDS011;396;52.558;13.188;2022-08-03T09:18:43;2.53;;;1.20;;
828;SDS011;396;52.558;13.188;2022-08-03T09:21:13;4.00;;;1.47;;
828;SDS011;396;52.558;13.188;2022-08-03T09:23:45;2.33;;;1.07;;
828;SDS011;396;52.558;13.188;2022-08-03T09:26:18;2.30;;;1.10;;
828;SDS011;396;52.558;13.188;2022-08-03T09:28:46;2.70;;;1.10;;
828;SDS011;396;52.558;13.188;2022-08-03T09:31:27;3.07;;;1.43;;
828;SDS011;396;52.558;13.188;2022-08-03T09:33:55;2.97;;;1.20;;
828;SDS011;396;52.558;13.188;2022-08-03T09:36:39;2.50;;;1.10;;
828;SDS011;396;52.558;13.188;2022-08-03T09:39:08;2.50;;;1.10;;
828;SDS011;396;52.558;13.188;2022-08-03T09:41:36;2.10;;;0.90;;
828;SDS011;396;52.558;13.188;2022-08-03T09:44:04;3.20;;;1.60;;
828;SDS011;396;52.558;13.188;2022-08-03T09:46:31;3.20;;;1.60;;
828;SDS011;396;52.558;13.188;2022-08-03T09:49:12;2.90;;;1.27;;
828;SDS011;396;52.558;13.188;2022-08-03T09:51:40;2.70;;;1.20;;
828;SDS011;396;52.558;13.188;2022-08-03T09:54:07;2.23;;;1.00;;
828;SDS011;396;52.558;13.188;2022-08-03T09:56:37;3.00;;;1.10;;
828;SDS011;396;52.558;13.188;2022-08-03T09:59:05;2.30;;;1.20;;
828;SDS011;396;52.558;13.188;2022-08-03T10:01:32;2.10;;;0.90;;
828;SDS011;396;52.558;13.188;2022-08-03T10:03:59;4.77;;;1.60;;
828;SDS011;396;52.558;13.188;2022-08-03T10:06:26;2.70;;;1.13;;
828;SDS011;396;52.558;13.188;2022-08-03T10:09:04;2.97;;;1.37;;
828;SDS011;396;52.558;13.188;2022-08-03T10:11:32;2.40;;;1.00;;
828;SDS011;396;52.558;13.188;2022-08-03T10:14:00;2.30;;;1.10;;
828;SDS011;396;52.558;13.188;2022-08-03T10:16:29;3.70;;;1.30;;
828;SDS011;396;52.558;13.188;2022-08-03T10:18:59;2.50;;;1.20;;
828;SDS011;396;52.558;13.188;2022-08-03T10:21:26;2.70;;;1.00;;
828;SDS011;396;52.558;13.188;2022-08-03T10:23:57;2.83;;;1.50;;
828;SDS011;396;52.558;13.188;2022-08-03T10:26:28;2.93;;;1.10;;
828;SDS011;396;52.558;13.188;2022-08-03T10:28:58;2.87;;;1.50;;
828;SDS011;396;52.558;13.188;2022-08-03T10:31:27;3.43;;;1.47;;
828;SDS011;396;52.558;13.188;2022-08-03T10:34:00;2.50;;;1.10;;
828;SDS011;396;52.558;13.188;2022-08-03T10:36:30;2.90;;;1.30;;
828;SDS011;396;52.558;13.188;2022-08-03T10:38:58;2.80;;;1.20;;
828;SDS011;396;52.558;13.188;2022-08-03T10:41:30;2.43;;;1.10;;
828;SDS011;396;52.558;13.188;2022-08-03T10:44:02;4.70;;;1.00;;
828;SDS011;396;52.558;13.188;2022-08-03T10:46:32;2.67;;;1.20;;
828;SDS011;396;52.558;13.188;2022-08-03T10:49:00;3.27;;;1.30;;
828;SDS011;396;52.558;13.188;2022-08-03T10:51:28;2.77;;;1.17;;
828;SDS011;396;52.558;13.188;2022-08-03T10:53:56;2.63;;;1.20;;
828;SDS011;396;52.558;13.188;2022-08-03T10:56:39;2.43;;;1.10;;
828;SDS011;396;52.558;13.188;2022-08-03T11:05:31;3.00;;;1.23;;
828;SDS011;396;52.558;13.188;2022-08-03T11:10:55;2.47;;;1.07;;
828;SDS011;396;52.558;13.188;2022-08-03T11:13:28;2.50;;;1.20;;
828;SDS011;396;52.558;13.188;2022-08-03T11:15:59;2.30;;;0.90;;
828;SDS011;396;52.558;13.188;2022-08-03T11:18:28;2.70;;;0.83;;
828;SDS011;396;52.558;13.188;2022-08-03T11:20:56;2.73;;;1.00;;
828;SDS011;396;52.558;13.188;2022-08-03T11:23:40;2.83;;;1.17;;
828;SDS011;396;52.558;13.188;2022-08-03T11:26:12;2.27;;;1.00;;
828;SDS011;396;52.558;13.188;2022-08-03T11:28:42;2.50;;;1.00;;
828;SDS011;396;52.558;13.188;2022-08-03T11:34:09;2.50;;;1.13;;
828;SDS011;396;52.558;13.188;2022-08-03T11:39:37;2.57;;;0.93;;
828;SDS011;396;52.558;13.188;2022-08-03T11:45:11;2.20;;;1.00;;
828;SDS011;396;52.558;13.188;2022-08-03T11:47:38;3.43;;;1.30;;
828;SDS011;396;52.558;13.188;2022-08-03T11:50:05;3.00;;;1.20;;
828;SDS011;396;52.558;13.188;2022-08-03T11:52:33;2.60;;;1.00;;
828;SDS011;396;52.558;13.188;2022-08-03T11:55:02;2.30;;;0.90;;
828;SDS011;396;52.558;13.188;2022-08-03T11:57:35;2.63;;;1.17;;
828;SDS011;396;52.558;13.188;2022-08-03T12:00:02;2.70;;;1.17;;
828;SDS011;396;52.558;13.188;2022-08-03T12:02:53;3.10;;;1.63;;
828;SDS011;396;52.558;13.188;2022-08-03T12:05:31;2.90;;;1.17;;
828;SDS011;396;52.558;13.188;2022-08-03T12:08:01;3.77;;;1.43;;
828;SDS011;396;52.558;13.188;2022-08-03T12:10:29;2.00;;;0.80;;
828;SDS011;396;52.558;13.188;2022-08-03T12:12:56;2.50;;;1.10;;
828;SDS011;396;52.558;13.188;2022-08-03T12:15:24;2.17;;;1.00;;
828;SDS011;396;52.558;13.188;2022-08-03T12:17:51;2.50;;;1.30;;
828;SDS011;396;52.558;13.188;2022-08-03T12:20:21;2.60;;;1.40;;
828;SDS011;396;52.558;13.188;2022-08-03T12:22:49;2.30;;;0.90;;
828;SDS011;396;52.558;13.188;2022-08-03T12:25:19;2.30;;;0.97;;
828;SDS011;396;52.558;13.188;2022-08-03T12:27:47;2.40;;;1.20;;
828;SDS011;396;52.558;13.188;2022-08-03T12:30:14;2.43;;;0.93;;
828;SDS011;396;52.558;13.188;2022-08-03T12:32:41;2.47;;;1.23;;
828;SDS011;396;52.558;13.188;2022-08-03T12:35:09;2.10;;;1.10;;
828;SDS011;396;52.558;13.188;2022-08-03T12:37:37;2.60;;;1.43;;
828;SDS011;396;52.558;13.188;2022-08-03T12:40:04;2.97;;;1.10;;
828;SDS011;396;52.558;13.188;2022-08-03T12:42:31;2.50;;;1.23;;
828;SDS011;396;52.558;13.188;2022-08-03T12:44:58;2.83;;;1.27;;
828;SDS011;396;52.558;13.188;2022-08-03T12:47:25;2.17;;;1.00;;
828;SDS011;396;52.558;13.188;2022-08-03T12:49:52;2.03;;;1.00;;
828;SDS011;396;52.558;13.188;2022-08-03T12:52:20;2.93;;;1.27;;
828;SDS011;396;52.558;13.188;2022-08-03T12:54:59;2.37;;;0.90;;
828;SDS011;396;52.558;13.188;2022-08-03T12:57:32;2.60;;;1.33;;
828;SDS011;396;52.558;13.188;2022-08-03T13:00:09;2.27;;;1.00;;
828;SDS011;396;52.558;13.188;2022-08-03T13:02:37;2.60;;;1.37;;
828;SDS011;396;52.558;13.188;2022-08-03T13:05:08;3.20;;;1.23;;
828;SDS011;396;52.558;13.188;2022-08-03T13:07:38;2.00;;;0.80;;
828;SDS011;396;52.558;13.188;2022-08-03T13:10:07;2.17;;;0.97;;
828;SDS011;396;52.558;13.188;2022-08-03T13:12:44;2.40;;;1.00;;
828;SDS011;396;52.558;13.188;2022-08-03T13:15:11;2.40;;;0.80;;
828;SDS011;396;52.558;13.188;2022-08-03T13:17:38;2.77;;;1.10;;
828;SDS011;396;52.558;13.188;2022-08-03T13:20:05;2.23;;;0.93;;
828;SDS011;396;52.558;13.188;2022-08-03T13:22:32;2.57;;;1.10;;
828;SDS011;396;52.558;13.188;2022-08-03T13:24:59;2.50;;;1.10;;
828;SDS011;396;52.558;13.188;2022-08-03T13:27:28;2.57;;;1.37;;
828;SDS011;396;52.558;13.188;2022-08-03T13:29:55;2.27;;;1.13;;
828;SDS011;396;52.558;13.188;2022-08-03T13:32:23;2.50;;;1.00;;
828;SDS011;396;52.558;13.188;2022-08-03T13:34:50;3.00;;;1.17;;
828;SDS011;396;52.558;13.188;2022-08-03T13:37:17;2.70;;;1.10;;
828;SDS011;396;52.558;13.188;2022-08-03T13:39:43;3.00;;;1.27;;
828;SDS011;396;52.558;13.188;2022-08-03T13:42:10;2.63;;;1.10;;
828;SDS011;396;52.558;13.188;2022-08-03T13:44:38;4.13;;;1.20;;
828;SDS011;396;52.558;13.188;2022-08-03T13:47:04;2.20;;;0.90;;
828;SDS011;396;52.558;13.188;2022-08-03T13:49:31;2.50;;;1.40;;
828;SDS011;396;52.558;13.188;2022-08-03T13:51:58;2.27;;;1.03;;
828;SDS011;396;52.558;13.188;2022-08-03T13:54:24;2.43;;;1.17;;
828;SDS011;396;52.558;13.188;2022-08-03T13:56:51;2.70;;;1.10;;
828;SDS011;396;52.558;13.188;2022-08-03T13:59:18;3.43;;;1.10;;
828;SDS011;396;52.558;13.188;2022-08-03T14:01:47;2.63;;;1.27;;
828;SDS011;396;52.558;13.188;2022-08-03T14:04:15;2.37;;;1.00;;
828;SDS011;396;52.558;13.188;2022-08-03T14:06:42;2.40;;;1.23;;
828;SDS011;396;52.558;13.188;2022-08-03T14:09:09;2.40;;;1.13;;
828;SDS011;396;52.558;13.188;2022-08-03T14:11:35;1.90;;;0.83;;
828;SDS011;396;52.558;13.188;2022-08-03T14:14:02;3.43;;;1.20;;
828;SDS011;396;52.558;13.188;2022-08-03T14:16:29;3.73;;;1.23;;
828;SDS011;396;52.558;13.188;2022-08-03T14:18:57;14.53;;;2.07;;
828;SDS011;396;52.558;13.188;2022-08-03T14:21:23;2.73;;;1.33;;
828;SDS011;396;52.558;13.188;2022-08-03T14:23:50;2.50;;;1.10;;
828;SDS011;396;52.558;13.188;2022-08-03T14:26:17;3.07;;;1.20;;
828;SDS011;396;52.558;13.188;2022-08-03T14:28:44;2.53;;;1.10;;
828;SDS011;396;52.558;13.188;2022-08-03T14:31:11;2.27;;;1.07;;
828;SDS011;396;52.558;13.188;2022-08-03T14:33:37;2.30;;;1.10;;
828;SDS011;396;52.558;13.188;2022-08-03T14:36:06;2.63;;;1.10;;
828;SDS011;396;52.558;13.188;2022-08-03T14:38:32;4.97;;;1.57;;
828;SDS011;396;52.558;13.188;2022-08-03T14:40:59;2.30;;;0.97;;
828;SDS011;396;52.558;13.188;2022-08-03T14:43:26;3.20;;;1.37;;
828;SDS011;396;52.558;13.188;2022-08-03T14:45:52;2.67;;;1.23;;
828;SDS011;396;52.558;13.188;2022-08-03T14:48:19;3.90;;;1.40;;
828;SDS011;396;52.558;13.188;2022-08-03T14:50:47;2.17;;;1.10;;
828;SDS011;396;52.558;13.188;2022-08-03T14:53:15;7.60;;;1.53;;
828;SDS011;396;52.558;13.188;2022-08-03T14:55:42;3.30;;;1.60;;
828;SDS011;396;52.558;13.188;2022-08-03T14:58:10;4.57;;;1.53;;
828;SDS011;396;52.558;13.188;2022-08-03T15:00:36;3.63;;;1.80;;
828;SDS011;396;52.558;13.188;2022-08-03T15:03:03;2.50;;;1.27;;
828;SDS011;396;52.558;13.188;2022-08-03T15:05:30;2.73;;;1.37;;
828;SDS011;396;52.558;13.188;2022-08-03T15:07:56;2.90;;;1.50;;
828;SDS011;396;52.558;13.188;2022-08-03T15:10:24;2.27;;;1.03;;
828;SDS011;396;52.558;13.188;2022-08-03T15:12:51;2.87;;;0.97;;
828;SDS011;396;52.558;13.188;2022-08-03T15:15:19;2.80;;;1.27;;
828;SDS011;396;52.558;13.188;2022-08-03T15:17:46;4.60;;;1.87;;
828;SDS011;396;52.558;13.188;2022-08-03T15:20:12;3.53;;;2.07;;
828;SDS011;396;52.558;13.188;2022-08-03T15:22:39;7.93;;;1.87;;
828;SDS011;396;52.558;13.188;2022-08-03T15:25:06;3.80;;;1.60;;
828;SDS011;396;52.558;13.188;2022-08-03T15:27:34;2.83;;;1.27;;
828;SDS011;396;52.558;13.188;2022-08-03T15:30:01;2.57;;;1.40;;
828;SDS011;396;52.558;13.188;2022-08-03T15:32:30;2.40;;;1.10;;
828;SDS011;396;52.558;13.188;2022-08-03T15:34:57;2.50;;;1.43;;
828;SDS011;396;52.558;13.188;2022-08-03T15:37:24;2.83;;;1.10;;
828;SDS011;396;52.558;13.188;2022-08-03T15:39:51;2.77;;;1.33;;
828;SDS011;396;52.558;13.188;2022-08-03T15:42:18;4.17;;;1.47;;
828;SDS011;396;52.558;13.188;2022-08-03T15:44:46;2.80;;;1.37;;
828;SDS011;396;52.558;13.188;2022-08-03T15:47:13;2.50;;;1.00;;
828;SDS011;396;52.558;13.188;2022-08-03T15:49:40;2.73;;;1.23;;
828;SDS011;396;52.558;13.188;2022-08-03T15:52:06;2.60;;;1.47;;
828;SDS011;396;52.558;13.188;2022-08-03T15:54:33;3.00;;;1.37;;
828;SDS011;396;52.558;13.188;2022-08-03T15:57:00;2.70;;;1.30;;